createdAt,value
2022-12-05T00:01:18.592Z,86479.72
2022-12-05T00:03:47.298Z,86531.81
2022-12-05T00:06:15.195Z,86485.34
2022-12-05T00:08:42.051Z,86515.91
2022-12-05T00:11:14.627Z,86519.31
2022-12-05T00:13:42.823Z,86544.22
2022-12-05T00:16:11.753Z,86538.03
2022-12-05T00:18:39.361Z,86535.22
2022-12-05T00:21:07.658Z,86508.53
2022-12-05T00:23:34.748Z,86506.31
2022-12-05T00:26:03.964Z,86540.50
2022-12-05T00:28:35.133Z,86521.00
2022-12-05T00:31:07.221Z,86550.22
2022-12-05T00:33:34.681Z,86512.75
2022-12-05T00:36:10.624Z,86555.03
2022-12-05T00:38:37.898Z,86546.09
2022-12-05T00:41:16.756Z,86515.00
2022-12-05T00:43:45.018Z,86503.75
2022-12-05T00:46:15.158Z,86537.91
2022-12-05T00:48:43.017Z,86534.44
2022-12-05T00:51:14.453Z,86533.81
2022-12-05T00:53:42.501Z,86532.50
2022-12-05T00:56:15.810Z,86521.34
2022-12-05T00:58:43.360Z,86504.66
2022-12-05T01:01:15.086Z,86472.66
2022-12-05T01:03:43.928Z,86482.50
2022-12-05T01:06:12.452Z,86504.66
2022-12-05T01:08:39.462Z,86519.34
2022-12-05T01:11:07.770Z,86515.97
2022-12-05T01:13:35.679Z,86464.59
2022-12-05T01:16:03.151Z,86482.66
2022-12-05T01:18:30.460Z,86483.47
2022-12-05T01:20:57.715Z,86496.66
2022-12-05T01:23:25.403Z,86485.53
2022-12-05T01:25:53.299Z,86516.75
2022-12-05T01:28:20.416Z,86499.31
2022-12-05T01:30:49.343Z,86491.78
2022-12-05T01:33:17.216Z,86513.38
2022-12-05T01:35:44.682Z,86505.09
2022-12-05T01:38:13.100Z,86501.66
2022-12-05T01:40:41.121Z,86503.75
2022-12-05T01:43:17.570Z,86499.72
2022-12-05T01:45:46.712Z,86488.63
2022-12-05T01:48:32.684Z,86456.06
2022-12-05T01:51:00.639Z,86470.72
2022-12-05T01:53:28.895Z,86489.47
2022-12-05T01:55:56.583Z,86467.88
2022-12-05T01:58:29.026Z,86484.59
2022-12-05T02:00:56.813Z,86474.81
2022-12-05T02:03:24.324Z,86454.09
2022-12-05T02:05:54.412Z,86449.94
2022-12-05T02:08:21.818Z,86463.72
2022-12-05T02:10:54.491Z,86480.50
2022-12-05T02:13:36.409Z,86475.00
2022-12-05T02:16:19.009Z,86473.44
2022-12-05T02:18:58.167Z,86476.25
2022-12-05T02:21:46.875Z,86472.25
2022-12-05T02:24:32.704Z,86472.97
2022-12-05T02:27:22.154Z,86464.72
2022-12-05T02:30:12.456Z,86476.34
2022-12-05T02:33:04.062Z,86474.31
2022-12-05T02:35:39.587Z,86472.16
2022-12-05T02:38:21.439Z,86473.50
2022-12-05T02:41:05.599Z,86480.44
2022-12-05T02:44:12.243Z,86425.13
2022-12-05T02:46:41.763Z,86461.00
2022-12-05T02:49:12.092Z,86476.41
2022-12-05T02:51:44.446Z,86437.47
2022-12-05T02:54:17.256Z,86458.22
2022-12-05T02:56:46.888Z,86468.56
2022-12-05T02:59:18.490Z,86441.59
2022-12-05T03:01:49.913Z,86477.72
2022-12-05T03:04:20.193Z,86430.44
2022-12-05T03:06:59.162Z,86457.34
2022-12-05T03:09:29.938Z,86471.16
2022-12-05T03:12:12.900Z,86429.63
2022-12-05T03:14:46.524Z,86462.22
2022-12-05T03:17:20.157Z,86444.22
2022-12-05T03:20:07.775Z,86485.09
2022-12-05T03:22:40.762Z,86480.31
2022-12-05T03:25:09.176Z,86444.22
2022-12-05T03:28:02.091Z,86437.28
2022-12-05T03:30:31.075Z,86483.81
2022-12-05T03:33:20.483Z,86445.66
2022-12-05T03:35:53.390Z,86488.63
2022-12-05T03:38:34.939Z,86470.66
2022-12-05T03:41:16.922Z,86496.97
2022-12-05T03:44:16.141Z,86488.63
2022-12-05T03:46:43.075Z,86491.41
2022-12-05T03:49:34.342Z,86495.53
2022-12-05T03:52:10.315Z,86504.47
2022-12-05T03:54:47.100Z,86483.63
2022-12-05T03:57:17.323Z,86498.22
2022-12-05T03:59:54.928Z,86489.91
2022-12-05T04:02:32.447Z,86505.09
2022-12-05T04:05:08.353Z,86503.78
2022-12-05T04:07:39.431Z,86505.22
2022-12-05T04:10:14.712Z,86505.13
2022-12-05T04:12:43.355Z,86478.13
2022-12-05T04:15:22.621Z,86497.56
2022-12-05T04:18:00.767Z,86457.41
2022-12-05T04:20:59.541Z,86491.50
2022-12-05T04:23:27.912Z,86456.16
2022-12-05T04:26:14.936Z,86449.28
2022-12-05T04:28:51.811Z,86470.84
2022-12-05T04:31:32.464Z,86473.50
2022-12-05T04:34:06.804Z,86461.06
2022-12-05T04:36:33.708Z,86482.59
2022-12-05T04:39:03.070Z,86487.38
2022-12-05T04:41:38.509Z,86452.66
2022-12-05T04:44:10.435Z,86451.25
2022-12-05T04:46:41.597Z,86461.59
2022-12-05T04:49:12.129Z,86442.38
2022-12-05T04:51:41.412Z,86461.75
2022-12-05T04:54:21.715Z,86487.50
2022-12-05T04:56:56.752Z,86420.28
2022-12-05T04:59:26.592Z,86432.72
2022-12-05T05:02:04.839Z,86450.03
2022-12-05T05:04:38.377Z,86486.13
2022-12-05T05:07:09.697Z,86490.28
2022-12-05T05:09:37.665Z,86487.38
2022-12-05T05:12:04.934Z,86479.00
2022-12-05T05:14:31.931Z,86467.88
2022-12-05T05:16:58.925Z,86485.19
2022-12-05T05:19:26.073Z,86495.69
2022-12-05T05:21:53.495Z,86498.38
2022-12-05T05:24:21.915Z,86492.72
2022-12-05T05:26:53.948Z,86488.53
2022-12-05T05:29:23.946Z,86487.16
2022-12-05T05:31:51.069Z,86502.97
2022-12-05T05:34:18.098Z,86446.69
2022-12-05T05:36:45.078Z,86507.84
2022-12-05T05:39:15.374Z,86511.94
2022-12-05T05:41:43.096Z,86480.59
2022-12-05T05:44:10.730Z,86510.47
2022-12-05T05:46:38.713Z,86500.81
2022-12-05T05:49:05.789Z,86510.38
2022-12-05T05:51:32.814Z,86483.25
2022-12-05T05:54:00.514Z,86495.06
2022-12-05T05:56:28.807Z,86470.13
2022-12-05T05:58:58.068Z,86500.69
2022-12-05T06:01:25.054Z,86490.84
2022-12-05T06:03:52.453Z,86467.94
2022-12-05T06:06:20.883Z,86483.75
2022-12-05T06:08:48.345Z,86491.44
2022-12-05T06:11:25.707Z,86467.25
2022-12-05T06:13:58.322Z,86471.31
2022-12-05T06:16:25.403Z,86477.50
2022-12-05T06:18:53.271Z,86518.53
2022-12-05T06:21:21.354Z,86518.47
2022-12-05T06:23:48.852Z,86492.00
2022-12-05T06:26:20.005Z,86525.34
2022-12-05T06:28:47.103Z,86534.97
2022-12-05T06:31:23.868Z,86512.78
2022-12-05T06:33:51.329Z,86526.50
2022-12-05T06:36:20.638Z,86542.00
2022-12-05T06:38:47.662Z,86528.72
2022-12-05T06:41:17.928Z,86546.81
2022-12-05T06:43:45.441Z,86535.75
2022-12-05T06:46:14.262Z,86544.59
2022-12-05T06:48:41.348Z,86536.66
2022-12-05T06:51:13.919Z,86492.13
2022-12-05T06:53:41.340Z,86553.19
2022-12-05T06:56:14.237Z,86526.81
2022-12-05T06:58:42.534Z,86550.47
2022-12-05T07:01:39.341Z,86508.03
2022-12-05T07:04:26.780Z,86524.78
2022-12-05T07:06:55.385Z,86546.13
2022-12-05T07:09:46.087Z,86518.84
2022-12-05T07:12:15.508Z,86541.53
2022-12-05T07:14:48.706Z,86542.22
2022-12-05T07:17:20.719Z,86518.75
2022-12-05T07:19:52.186Z,86496.56
2022-12-05T07:22:21.346Z,86516.72
2022-12-05T07:24:48.862Z,86508.31
2022-12-05T07:27:17.057Z,86498.69
2022-12-05T07:29:46.435Z,86509.91
2022-12-05T07:32:13.467Z,86508.41
2022-12-05T07:34:40.731Z,86538.44
2022-12-05T07:37:08.298Z,86540.56
2022-12-05T07:39:35.253Z,86494.78
2022-12-05T07:42:02.345Z,86497.50
2022-12-05T07:44:29.365Z,86503.03
2022-12-05T07:46:56.369Z,86555.84
2022-12-05T07:49:23.290Z,86556.56
2022-12-05T07:51:50.318Z,86552.53
2022-12-05T07:54:17.547Z,86542.00
2022-12-05T07:56:47.726Z,86522.84
2022-12-05T07:59:15.128Z,86566.56
2022-12-05T08:01:42.184Z,86567.28
2022-12-05T08:04:14.817Z,86538.88
2022-12-05T08:06:42.424Z,86538.28
2022-12-05T08:09:09.451Z,86546.75
2022-12-05T08:11:36.599Z,86521.69
2022-12-05T08:14:06.466Z,86548.03
2022-12-05T08:16:33.831Z,86544.75
2022-12-05T08:19:03.748Z,86540.75
2022-12-05T08:21:31.413Z,86538.00
2022-12-05T08:23:58.847Z,86508.13
2022-12-05T08:26:30.996Z,86541.53
2022-12-05T08:29:09.708Z,86560.53
2022-12-05T08:31:41.360Z,86569.59
2022-12-05T08:34:11.287Z,86537.66
2022-12-05T08:36:38.444Z,86515.66
2022-12-05T08:39:08.496Z,86548.97
2022-12-05T08:41:35.591Z,86520.69
2022-12-05T08:44:05.669Z,86548.59
2022-12-05T08:46:35.169Z,86533.28
2022-12-05T08:49:03.336Z,86550.72
2022-12-05T08:51:30.470Z,86526.50
2022-12-05T08:53:57.534Z,86513.41
2022-12-05T08:56:27.083Z,86501.72
2022-12-05T08:59:01.273Z,86530.31
2022-12-05T09:01:32.832Z,86538.75
2022-12-05T09:04:01.285Z,86513.19
2022-12-05T09:06:29.906Z,86544.31
2022-12-05T09:08:59.807Z,86533.44
2022-12-05T09:11:30.648Z,86531.47
2022-12-05T09:13:58.969Z,86489.22
2022-12-05T09:16:35.172Z,86521.09
2022-12-05T09:19:11.276Z,86518.28
2022-12-05T09:21:38.460Z,86469.91
2022-12-05T09:24:05.385Z,86479.88
2022-12-05T09:26:32.270Z,86516.06
2022-12-05T09:28:59.313Z,86518.19
2022-12-05T09:31:30.765Z,86461.44
2022-12-05T09:33:57.978Z,86464.88
2022-12-05T09:36:30.815Z,86506.59
2022-12-05T09:39:04.164Z,86501.03
2022-12-05T09:42:04.976Z,86500.34
2022-12-05T09:44:44.351Z,86495.66
2022-12-05T09:47:46.654Z,86492.25
2022-12-05T09:50:25.293Z,86469.28
2022-12-05T09:53:04.310Z,86496.97
2022-12-05T09:56:05.502Z,86497.78
2022-12-05T09:58:52.589Z,86483.34
2022-12-05T10:01:31.702Z,86487.53
2022-12-05T10:04:46.510Z,86470.94
2022-12-05T10:07:13.389Z,86480.00
2022-12-05T10:10:20.931Z,86482.75
2022-12-05T10:13:09.014Z,86471.06
2022-12-05T10:15:45.531Z,86437.88
2022-12-05T10:18:21.803Z,86478.03
2022-12-05T10:20:57.121Z,86478.06
2022-12-05T10:23:56.142Z,86480.84
2022-12-05T10:26:18.259Z,86471.81
2022-12-05T10:28:54.211Z,86426.78
2022-12-05T10:31:26.876Z,86480.75
2022-12-05T10:34:03.852Z,86459.97
2022-12-05T10:36:34.858Z,86425.38
2022-12-05T10:39:04.699Z,86402.50
2022-12-05T10:41:34.504Z,86418.44
2022-12-05T10:44:01.542Z,86469.66
2022-12-05T10:46:29.740Z,86425.31
2022-12-05T10:48:57.122Z,86442.63
2022-12-05T10:51:32.488Z,86453.72
2022-12-05T10:54:09.374Z,86413.56
2022-12-05T10:56:48.404Z,86430.91
2022-12-05T10:59:19.842Z,86453.06
2022-12-05T11:01:51.811Z,86381.16
2022-12-05T11:04:24.563Z,86464.88
2022-12-05T11:06:58.974Z,86452.47
2022-12-05T11:09:32.555Z,86440.69
2022-12-05T11:12:16.994Z,86456.66
2022-12-05T11:15:22.082Z,86458.66
2022-12-05T11:17:50.348Z,86458.72
2022-12-05T11:20:20.014Z,86452.56
2022-12-05T11:22:59.473Z,86441.47
2022-12-05T11:25:36.642Z,86461.50
2022-12-05T11:28:30.838Z,86452.56
2022-12-05T11:31:06.781Z,86451.84
2022-12-05T11:33:36.714Z,86413.84
2022-12-05T11:36:31.149Z,86443.66
2022-12-05T11:38:58.601Z,86436.75
2022-12-05T11:41:37.592Z,86442.28
2022-12-05T11:44:33.707Z,86439.56
2022-12-05T11:47:09.502Z,86437.50
2022-12-05T11:50:04.725Z,86436.06
2022-12-05T11:52:54.949Z,86396.63
2022-12-05T11:55:26.286Z,86426.41
2022-12-05T11:58:11.911Z,86422.97
2022-12-05T12:00:53.843Z,86417.44
2022-12-05T12:03:45.365Z,86414.03
2022-12-05T12:06:27.577Z,86415.41
2022-12-05T12:09:12.618Z,86412.69
2022-12-05T12:12:11.896Z,86399.53
2022-12-05T12:15:17.045Z,86412.00
2022-12-05T12:17:56.641Z,86382.28
2022-12-05T12:20:34.847Z,86403.00
2022-12-05T12:23:14.058Z,86400.25
2022-12-05T12:25:53.180Z,86403.72
2022-12-05T12:28:42.237Z,86410.66
2022-12-05T12:31:21.144Z,86398.22
2022-12-05T12:34:10.011Z,86409.97
2022-12-05T12:36:55.500Z,86393.41
2022-12-05T12:39:31.323Z,86392.72
2022-12-05T12:42:21.206Z,86391.34
2022-12-05T12:45:12.848Z,86400.97
2022-12-05T12:48:02.537Z,86401.00
2022-12-05T12:50:37.720Z,86384.44
2022-12-05T12:53:50.354Z,86389.28
2022-12-05T12:56:30.690Z,86387.91
2022-12-05T12:59:16.815Z,86385.84
2022-12-05T13:01:48.572Z,86389.97
2022-12-05T13:04:28.517Z,86395.53
2022-12-05T13:07:06.978Z,86362.34
2022-12-05T13:09:51.811Z,86393.44
2022-12-05T13:12:26.110Z,86385.84
2022-12-05T13:15:02.268Z,86351.31
2022-12-05T13:17:32.089Z,86359.59
2022-12-05T13:20:00.280Z,86395.53
2022-12-05T13:22:28.891Z,86369.28
2022-12-05T13:24:56.790Z,86385.16
2022-12-05T13:27:29.487Z,86365.13
2022-12-05T13:30:00.556Z,86359.59
2022-12-05T13:32:37.085Z,86369.97
2022-12-05T13:36:00.741Z,86378.97
2022-12-05T13:38:52.387Z,86337.47
2022-12-05T13:41:38.410Z,86372.03
2022-12-05T13:44:12.606Z,86370.66
2022-12-05T13:46:42.511Z,86381.69
2022-12-05T13:49:29.136Z,86365.09
2022-12-05T13:52:07.683Z,86374.09
2022-12-05T13:54:42.614Z,86376.19
2022-12-05T13:57:29.349Z,86378.94
2022-12-05T14:00:07.990Z,86383.75
2022-12-05T14:02:41.877Z,86385.84
2022-12-05T14:05:14.554Z,86385.16
2022-12-05T14:07:49.851Z,86387.22
2022-12-05T14:10:37.183Z,86383.06
2022-12-05T14:13:24.290Z,86380.28
2022-12-05T14:15:52.757Z,86383.06
2022-12-05T14:18:35.493Z,86360.94
2022-12-05T14:21:12.422Z,86381.69
2022-12-05T14:24:01.931Z,86380.31
2022-12-05T14:26:53.445Z,86365.78
2022-12-05T14:29:38.670Z,86391.34
2022-12-05T14:32:24.120Z,86387.19
2022-12-05T14:35:28.386Z,86394.06
2022-12-05T14:38:06.943Z,86390.59
2022-12-05T14:40:43.294Z,86363.59
2022-12-05T14:43:29.260Z,86387.81
2022-12-05T14:45:58.925Z,86366.34
2022-12-05T14:48:48.435Z,86384.38
2022-12-05T14:51:30.844Z,86391.28
2022-12-05T14:54:13.066Z,86400.94
2022-12-05T14:56:46.355Z,86396.09
2022-12-05T14:59:16.317Z,86392.63
2022-12-05T15:02:05.513Z,86396.78
2022-12-05T15:04:55.445Z,86400.91
2022-12-05T15:07:38.656Z,86364.25
2022-12-05T15:10:28.092Z,86400.91
2022-12-05T15:13:03.240Z,86394.59
2022-12-05T15:15:42.660Z,86363.47
2022-12-05T15:18:28.539Z,86411.88
2022-12-05T15:20:59.669Z,86409.09
2022-12-05T15:23:40.304Z,86398.72
2022-12-05T15:29:20.961Z,86411.13
2022-12-05T15:31:52.668Z,86410.47
2022-12-05T15:34:45.069Z,86415.97
2022-12-05T15:37:39.469Z,86394.56
2022-12-05T15:40:06.400Z,86405.59
2022-12-05T15:42:53.848Z,86405.59
2022-12-05T15:45:23.585Z,86404.91
2022-12-05T15:47:56.957Z,86386.88
2022-12-05T15:50:30.906Z,86409.00
2022-12-05T15:53:24.072Z,86389.66
2022-12-05T15:56:14.708Z,86395.19
2022-12-05T15:58:48.128Z,86385.50
2022-12-05T16:01:23.563Z,86400.72
2022-12-05T16:03:59.861Z,86357.78
2022-12-05T16:06:48.788Z,86415.19
2022-12-05T16:09:22.275Z,86410.34
2022-12-05T16:11:53.473Z,86411.69
2022-12-05T16:14:51.445Z,86366.03
2022-12-05T16:17:15.897Z,86420.00
2022-12-05T16:19:43.839Z,86404.09
2022-12-05T16:22:13.548Z,86415.84
2022-12-05T16:25:01.375Z,86421.34
2022-12-05T16:27:39.478Z,86414.41
2022-12-05T16:30:07.406Z,86374.97
2022-12-05T16:32:35.556Z,86415.09
2022-12-05T16:35:03.015Z,86407.53
2022-12-05T16:37:30.626Z,86419.91
2022-12-05T16:39:57.966Z,86415.09
2022-12-05T16:42:26.914Z,86375.66
2022-12-05T16:45:06.002Z,86411.59
2022-12-05T16:47:42.136Z,86405.38
2022-12-05T16:50:35.253Z,86402.56
2022-12-05T16:53:08.190Z,86400.47
2022-12-05T16:55:38.570Z,86407.38
2022-12-05T16:58:06.367Z,86411.50
2022-12-05T17:00:33.476Z,86394.88
2022-12-05T17:03:25.642Z,86410.78
2022-12-05T17:05:47.796Z,86383.78
2022-12-05T17:08:14.978Z,86401.69
2022-12-05T17:10:42.886Z,86389.31
2022-12-05T17:13:14.575Z,86399.00
2022-12-05T17:15:42.293Z,86396.25
2022-12-05T17:18:17.481Z,86412.84
2022-12-05T17:20:50.912Z,86394.84
2022-12-05T17:23:18.353Z,86356.06
2022-12-05T17:25:52.063Z,86393.47
2022-12-05T17:28:19.624Z,86412.81
2022-12-05T17:30:47.060Z,86418.31
2022-12-05T17:33:17.094Z,86417.63
2022-12-05T17:35:44.651Z,86425.22
2022-12-05T17:38:12.093Z,86412.84
2022-12-05T17:40:40.045Z,86356.03
2022-12-05T17:43:07.368Z,86404.47
2022-12-05T17:45:34.447Z,86416.91
2022-12-05T17:48:01.410Z,86398.94
2022-12-05T17:50:30.035Z,86401.00
2022-12-05T17:55:48.919Z,86414.16
2022-12-05T17:58:16.931Z,86394.09
2022-12-05T18:03:39.847Z,86360.84
2022-12-05T18:06:07.237Z,86423.78
2022-12-05T18:08:34.427Z,86422.38
2022-12-05T18:11:01.567Z,86417.59
2022-12-05T18:13:28.588Z,86421.00
2022-12-05T18:15:59.221Z,86391.94
2022-12-05T18:18:29.573Z,86407.19
2022-12-05T18:21:07.822Z,86403.00
2022-12-05T18:23:36.253Z,86409.94
2022-12-05T18:26:04.075Z,86407.81
2022-12-05T18:28:31.028Z,86376.00
2022-12-05T18:31:13.762Z,86410.00
2022-12-05T18:33:41.438Z,86387.09
2022-12-05T18:36:11.589Z,86405.09
2022-12-05T18:38:39.251Z,86385.09
2022-12-05T18:41:07.110Z,86383.66
2022-12-05T18:43:34.524Z,86390.59
2022-12-05T18:46:03.954Z,86379.50
2022-12-05T18:48:39.245Z,86407.16
2022-12-05T18:51:19.758Z,86411.31
2022-12-05T18:53:57.565Z,86368.44
2022-12-05T18:56:34.886Z,86394.09
2022-12-05T18:59:13.122Z,86397.53
2022-12-05T19:01:41.950Z,86396.84
2022-12-05T19:04:14.491Z,86400.28
2022-12-05T19:06:46.503Z,86378.06
2022-12-05T19:09:15.659Z,86382.25
2022-12-05T19:11:47.554Z,86391.03
2022-12-05T19:14:19.412Z,86405.66
2022-12-05T19:16:49.112Z,86401.56
2022-12-05T19:19:17.627Z,86351.75
2022-12-05T19:21:45.575Z,86396.09
2022-12-05T19:24:14.677Z,86340.72
2022-12-05T19:26:41.830Z,86369.75
2022-12-05T19:29:12.054Z,86358.00
2022-12-05T19:31:39.619Z,86350.38
2022-12-05T19:34:08.441Z,86409.88
2022-12-05T19:36:38.159Z,86405.03
2022-12-05T19:39:16.007Z,86347.59
2022-12-05T19:41:43.267Z,86362.81
2022-12-05T19:44:10.435Z,86393.97
2022-12-05T19:46:37.959Z,86360.06
2022-12-05T19:49:09.532Z,86397.44
2022-12-05T19:51:36.819Z,86367.63
2022-12-05T19:54:05.662Z,86387.78
2022-12-05T19:56:34.044Z,86398.88
2022-12-05T19:59:01.441Z,86389.84
2022-12-05T20:01:34.112Z,86363.50
2022-12-05T20:04:06.825Z,86372.41
2022-12-05T20:06:36.583Z,86358.53
2022-12-05T20:09:04.406Z,86365.47
2022-12-05T20:11:31.574Z,86340.56
2022-12-05T20:14:00.319Z,86390.44
2022-12-05T20:16:28.597Z,86396.00
2022-12-05T20:19:00.547Z,86394.63
2022-12-05T20:21:29.877Z,86380.78
2022-12-05T20:23:58.245Z,86380.81
2022-12-05T20:26:28.688Z,86394.59
2022-12-05T20:28:58.857Z,86360.56
2022-12-05T20:31:30.977Z,86368.28
2022-12-05T20:33:58.151Z,86361.41
2022-12-05T20:36:27.638Z,86391.09
2022-12-05T20:39:00.216Z,86355.78
2022-12-05T20:41:28.532Z,86383.47
2022-12-05T20:44:06.439Z,86375.22
2022-12-05T20:46:33.613Z,86387.59
2022-12-05T20:49:01.090Z,86381.41
2022-12-05T20:51:33.428Z,86382.06
2022-12-05T20:54:03.966Z,86386.22
2022-12-05T20:56:32.300Z,86376.50
2022-12-05T20:59:01.945Z,86378.56
2022-12-05T21:01:31.094Z,86382.06
2022-12-05T21:03:58.200Z,86341.91
2022-12-05T21:06:27.752Z,86384.81
2022-12-05T21:08:55.626Z,86377.91
2022-12-05T21:11:24.177Z,86348.88
2022-12-05T21:13:51.613Z,86373.09
2022-12-05T21:16:23.189Z,86372.41
2022-12-05T21:18:51.967Z,86375.16
2022-12-05T21:21:21.696Z,86369.63
2022-12-05T21:23:58.169Z,86326.63
2022-12-05T21:26:28.440Z,86311.47
2022-12-05T21:28:56.437Z,86336.94
2022-12-05T21:31:29.462Z,86355.69
2022-12-05T21:33:58.825Z,86363.34
2022-12-05T21:36:27.879Z,86315.63
2022-12-05T21:38:56.570Z,86350.22
2022-12-05T21:41:25.185Z,86320.50
2022-12-05T21:43:55.419Z,86335.00
2022-12-05T21:46:26.194Z,86305.97
2022-12-05T21:48:54.218Z,86353.03
2022-12-05T21:51:22.245Z,86304.56
2022-12-05T21:53:49.375Z,86292.09
2022-12-05T21:56:19.036Z,86305.22
2022-12-05T21:58:46.967Z,86347.47
2022-12-05T22:01:19.592Z,86344.69
2022-12-05T22:03:47.146Z,86362.59
2022-12-05T22:06:17.418Z,86346.78
2022-12-05T22:08:44.664Z,86340.59
2022-12-05T22:11:19.866Z,86335.06
2022-12-05T22:13:49.074Z,86307.34
2022-12-05T22:16:17.207Z,86202.22
2022-12-05T22:18:44.644Z,86300.53
2022-12-05T22:21:14.592Z,86289.47
2022-12-05T22:23:41.848Z,86286.69
2022-12-05T22:26:11.429Z,86306.03
2022-12-05T22:28:38.677Z,86304.69
2022-12-05T22:31:08.534Z,86330.97
2022-12-05T22:33:36.879Z,86331.72
2022-12-05T22:36:07.300Z,86289.47
2022-12-05T22:38:36.733Z,86299.16
2022-12-05T22:41:09.491Z,86301.94
2022-12-05T22:43:37.943Z,86310.19
2022-12-05T22:46:10.338Z,86285.38
2022-12-05T22:48:38.046Z,86309.59
2022-12-05T22:51:07.009Z,86290.88
2022-12-05T22:53:34.451Z,86260.50
2022-12-05T22:56:04.250Z,86322.75
2022-12-05T22:58:31.921Z,86303.44
2022-12-05T23:01:08.017Z,86309.69
2022-12-05T23:03:35.064Z,86249.44
2022-12-05T23:06:11.488Z,86303.47
2022-12-05T23:08:40.950Z,86303.47
2022-12-05T23:11:09.027Z,86269.56
2022-12-05T23:13:36.765Z,86295.22
2022-12-05T23:16:09.574Z,86293.84
2022-12-05T23:18:49.627Z,86266.19
2022-12-05T23:21:20.764Z,86280.03
2022-12-05T23:23:49.309Z,86248.28
2022-12-05T23:26:17.275Z,86255.88
2022-12-05T23:28:45.025Z,86225.47
2022-12-05T23:31:13.140Z,86252.34
2022-12-05T23:33:40.915Z,86246.84
2022-12-05T23:36:09.371Z,86280.00
2022-12-05T23:38:41.340Z,86273.16
2022-12-05T23:41:15.697Z,86274.53
2022-12-05T23:43:43.559Z,86271.78
2022-12-05T23:46:13.388Z,86275.22
2022-12-05T23:48:40.452Z,86273.16
2022-12-05T23:51:11.806Z,86253.66
2022-12-05T23:53:41.559Z,86237.16
2022-12-05T23:56:11.588Z,86237.16
2022-12-05T23:58:38.580Z,86235.81
